Hobson, Montana
Current Conditions -  °F | °C
As of 12:54 AM on Tuesday 21 Oct 2014 (Local Time) from KLWT Reporting Station
Clear Clear  
Wind Chill: 51°   Ceiling: Unl
Heat Index: 51°   Visibility: 10mi
Dew Point: 32°   Wind: 5mph
Humidity: 48%   Direction: 110°ESE
Pressure: 29.77"   Gusts: NA
Location:  47°N, 109.87°W
Report Text: KLWT 210654Z AUTO 11004KT 10SM CLR 11/00 A2977 RMK AO2 SLP051 T01060000 402560050
Loading
Personal Weather Stations






























Interactive Weather Map
Tropical Storm Tracking
New forecast layout! Learn more

10-Day Weather Forecast

Advertisements
Track Severe Weather on mobile